createdAt,value
2018-09-08T00:01:14.334Z,100.00
2018-09-08T00:04:18.607Z,100.00
2018-09-08T00:07:28.125Z,100.00
2018-09-08T00:10:32.409Z,100.00
2018-09-08T00:13:36.665Z,100.00
2018-09-08T00:16:46.267Z,100.00
2018-09-08T00:19:55.859Z,100.00
2018-09-08T00:23:05.511Z,100.00
2018-09-08T00:26:15.119Z,99.96
2018-09-08T00:29:24.577Z,100.00
2018-09-08T00:32:28.837Z,100.00
2018-09-08T00:35:33.176Z,100.00
2018-09-08T00:38:37.417Z,100.00
2018-09-08T00:41:41.719Z,100.00
2018-09-08T00:44:46.207Z,100.00
2018-09-08T00:47:50.556Z,100.00
2018-09-08T00:50:54.857Z,100.00
2018-09-08T00:53:59.628Z,100.00
2018-09-08T00:57:03.898Z,100.00
2018-09-08T01:00:08.194Z,100.00
2018-09-08T01:03:12.714Z,100.00
2018-09-08T01:06:16.989Z,100.00
2018-09-08T01:09:21.321Z,100.00
2018-09-08T01:12:25.591Z,100.00
2018-09-08T01:15:29.940Z,100.00
2018-09-08T01:18:36.778Z,100.00
2018-09-08T01:21:41.027Z,100.00
2018-09-08T01:24:45.432Z,100.00
2018-09-08T01:27:49.750Z,100.00
2018-09-08T01:30:53.998Z,100.00
2018-09-08T01:33:58.310Z,100.00
2018-09-08T01:37:02.603Z,100.00
2018-09-08T01:40:08.550Z,100.00
2018-09-08T01:43:13.056Z,100.00
2018-09-08T01:46:17.357Z,100.00
2018-09-08T01:49:21.654Z,100.00
2018-09-08T01:52:25.964Z,100.00
2018-09-08T01:55:30.212Z,100.00
2018-09-08T01:58:34.478Z,100.00
2018-09-08T02:01:38.852Z,100.00
2018-09-08T02:04:43.153Z,100.00
2018-09-08T02:07:47.451Z,100.00
2018-09-08T02:10:51.852Z,100.00
2018-09-08T02:13:56.317Z,100.00
2018-09-08T02:17:00.605Z,100.00
2018-09-08T02:20:04.983Z,100.00
2018-09-08T02:23:09.274Z,100.00
2018-09-08T02:26:13.504Z,100.00
2018-09-08T02:29:17.769Z,100.00
2018-09-08T02:32:22.061Z,100.00
2018-09-08T02:35:26.611Z,100.00
2018-09-08T02:38:30.994Z,100.00
2018-09-08T02:41:35.276Z,100.00
2018-09-08T02:44:39.511Z,100.00
2018-09-08T02:47:43.817Z,100.00
2018-09-08T02:50:46.565Z,100.00
2018-09-08T02:53:49.341Z,100.00
2018-09-08T02:56:52.091Z,100.00
2018-09-08T02:59:54.816Z,100.00
2018-09-08T03:02:57.564Z,100.00
2018-09-08T03:06:00.303Z,100.00
2018-09-08T03:09:03.059Z,100.00
2018-09-08T03:12:05.820Z,100.00
2018-09-08T03:15:08.573Z,100.00
2018-09-08T03:18:11.319Z,100.00
2018-09-08T03:21:14.069Z,100.00
2018-09-08T03:24:16.803Z,100.00
2018-09-08T03:27:19.565Z,100.00
2018-09-08T03:30:22.302Z,100.00
2018-09-08T03:33:25.034Z,100.00
2018-09-08T03:36:27.833Z,100.00
2018-09-08T03:39:30.591Z,100.00
2018-09-08T03:42:33.352Z,100.00
2018-09-08T03:45:36.140Z,100.00
2018-09-08T03:48:38.856Z,100.00
2018-09-08T03:51:41.601Z,100.00
2018-09-08T03:54:44.406Z,100.00
2018-09-08T03:57:47.144Z,100.00
2018-09-08T04:00:49.889Z,100.00
2018-09-08T04:03:54.195Z,100.00
2018-09-08T04:06:58.540Z,100.00
2018-09-08T04:10:02.776Z,100.00
2018-09-08T04:13:07.284Z,100.00
2018-09-08T04:16:11.588Z,100.00
2018-09-08T04:19:15.913Z,100.00
2018-09-08T04:22:24.482Z,100.00
2018-09-08T04:25:28.679Z,100.00
2018-09-08T04:28:33.641Z,100.00
2018-09-08T04:31:38.028Z,100.00
2018-09-08T04:34:42.384Z,100.00
2018-09-08T04:37:46.735Z,100.00
2018-09-08T04:40:51.279Z,100.00
2018-09-08T04:43:55.567Z,100.00
2018-09-08T04:46:59.910Z,100.00
2018-09-08T04:50:04.235Z,100.00
2018-09-08T04:53:08.580Z,100.00
2018-09-08T04:56:12.955Z,100.00
2018-09-08T04:59:17.285Z,100.00
2018-09-08T05:02:21.640Z,100.00
2018-09-08T05:05:25.895Z,100.00
2018-09-08T05:08:30.185Z,100.00
2018-09-08T05:11:34.443Z,100.00
2018-09-08T05:14:38.701Z,100.00
2018-09-08T05:17:42.922Z,100.00
2018-09-08T05:20:47.206Z,100.00
2018-09-08T05:23:51.557Z,100.00
2018-09-08T05:26:55.901Z,100.00
2018-09-08T05:30:00.265Z,100.00
2018-09-08T05:33:04.622Z,100.00
2018-09-08T05:36:08.903Z,100.00
2018-09-08T05:39:13.248Z,100.00
2018-09-08T05:42:17.540Z,100.00
2018-09-08T05:45:21.852Z,100.00
2018-09-08T05:48:26.138Z,100.00
2018-09-08T05:51:30.461Z,100.00
2018-09-08T05:54:34.877Z,100.00
2018-09-08T05:57:39.249Z,100.00
2018-09-08T06:00:43.567Z,100.00
2018-09-08T06:03:47.870Z,100.00
2018-09-08T06:06:56.277Z,100.00
2018-09-08T06:10:00.626Z,100.00
2018-09-08T06:13:04.913Z,100.00
2018-09-08T06:16:09.269Z,100.00
2018-09-08T06:19:13.581Z,100.00
2018-09-08T06:22:17.894Z,100.00
2018-09-08T06:25:22.233Z,100.00
2018-09-08T06:28:26.549Z,100.00
2018-09-08T06:31:30.862Z,100.00
2018-09-08T06:34:35.170Z,100.00
2018-09-08T06:37:39.422Z,100.00
2018-09-08T06:40:43.701Z,100.00
2018-09-08T06:43:47.978Z,100.00
2018-09-08T06:46:52.341Z,100.00
2018-09-08T06:49:56.743Z,100.00
2018-09-08T06:53:01.077Z,100.00
2018-09-08T06:56:05.414Z,100.00
2018-09-08T06:59:09.728Z,100.00
2018-09-08T07:02:14.061Z,100.00
2018-09-08T07:05:18.390Z,100.00
2018-09-08T07:08:22.722Z,100.00
2018-09-08T07:11:26.997Z,100.00
2018-09-08T07:14:31.328Z,100.00
2018-09-08T07:17:35.639Z,100.00
2018-09-08T07:20:39.916Z,100.00
2018-09-08T07:23:44.281Z,100.00
2018-09-08T07:26:48.578Z,100.00
2018-09-08T07:29:52.926Z,100.00
2018-09-08T07:32:57.238Z,100.00
2018-09-08T07:36:01.559Z,100.00
2018-09-08T07:39:08.793Z,100.00
2018-09-08T07:42:13.103Z,100.00
2018-09-08T07:45:17.512Z,100.00
2018-09-08T07:48:21.823Z,100.00
2018-09-08T07:51:26.249Z,100.00
2018-09-08T07:54:30.511Z,100.00
2018-09-08T07:57:34.871Z,100.00
2018-09-08T08:00:39.185Z,100.00
2018-09-08T08:03:43.503Z,100.00
2018-09-08T08:06:47.864Z,100.00
2018-09-08T08:09:52.154Z,100.00
2018-09-08T08:12:56.477Z,100.00
2018-09-08T08:16:00.799Z,100.00
2018-09-08T08:19:05.218Z,100.00
2018-09-08T08:22:09.525Z,100.00
2018-09-08T08:25:13.874Z,100.00
2018-09-08T08:28:18.159Z,100.00
2018-09-08T08:31:22.486Z,100.00
2018-09-08T08:34:26.825Z,100.00
2018-09-08T08:37:31.141Z,100.00
2018-09-08T08:40:35.468Z,100.00
2018-09-08T08:43:39.726Z,100.00
2018-09-08T08:46:44.240Z,100.00
2018-09-08T08:50:04.495Z,100.00
2018-09-08T08:54:20.822Z,100.00
2018-09-08T08:57:25.208Z,100.00
2018-09-08T09:00:29.548Z,100.00
2018-09-08T09:03:33.860Z,100.00
2018-09-08T09:06:38.281Z,100.00
2018-09-08T09:09:44.065Z,100.00
2018-09-08T09:12:48.450Z,100.00
2018-09-08T09:15:52.753Z,97.21
2018-09-08T09:19:28.707Z,95.42
2018-09-08T09:22:50.125Z,94.77
2018-09-08T09:25:54.400Z,95.75
2018-09-08T09:28:58.765Z,98.80
2018-09-08T09:32:03.084Z,100.00
2018-09-08T09:35:09.680Z,100.00
2018-09-08T09:38:13.990Z,100.00
2018-09-08T09:41:18.288Z,100.00
2018-09-08T09:44:22.666Z,100.00
2018-09-08T09:47:26.930Z,100.00
2018-09-08T09:50:31.289Z,100.00
2018-09-08T09:53:35.590Z,100.00
2018-09-08T09:56:39.878Z,100.00
2018-09-08T09:59:44.181Z,100.00
2018-09-08T10:03:21.364Z,100.00
2018-09-08T10:06:25.819Z,100.00
2018-09-08T10:09:30.076Z,100.00
2018-09-08T10:12:34.316Z,100.00
2018-09-08T10:15:38.556Z,100.00
2018-09-08T10:18:42.823Z,100.00
2018-09-08T10:21:47.082Z,100.00
2018-09-08T10:24:51.373Z,100.00
2018-09-08T10:27:55.682Z,100.00
2018-09-08T10:30:59.986Z,100.00
2018-09-08T10:34:04.430Z,100.00
2018-09-08T10:37:08.712Z,100.00
2018-09-08T10:40:13.866Z,100.00
2018-09-08T10:43:18.138Z,100.00
2018-09-08T10:46:22.497Z,100.00
2018-09-08T10:49:26.785Z,100.00
2018-09-08T10:52:34.286Z,100.00
2018-09-08T10:55:38.554Z,100.00
2018-09-08T10:58:42.813Z,96.43
2018-09-08T11:01:47.186Z,97.15
2018-09-08T11:04:51.515Z,92.77
2018-09-08T11:07:55.820Z,90.21
2018-09-08T11:11:00.255Z,88.42
2018-09-08T11:14:04.566Z,88.87
2018-09-08T11:17:08.867Z,89.36
2018-09-08T11:20:13.176Z,87.04
2018-09-08T11:23:17.542Z,84.22
2018-09-08T11:26:21.985Z,81.08
2018-09-08T11:29:26.316Z,78.52
2018-09-08T11:32:30.693Z,76.84
2018-09-08T11:35:34.989Z,77.88
2018-09-08T11:38:39.349Z,73.46
2018-09-08T11:41:44.091Z,73.39
2018-09-08T11:44:48.523Z,74.77
2018-09-08T11:47:52.822Z,77.24
2018-09-08T11:50:57.121Z,77.31
2018-09-08T11:54:01.419Z,78.67
2018-09-08T11:57:05.764Z,78.15
2018-09-08T12:00:10.083Z,78.62
2018-09-08T12:03:14.408Z,79.57
2018-09-08T12:06:18.709Z,78.60
2018-09-08T12:09:23.021Z,79.39
2018-09-08T12:12:27.344Z,79.56
2018-09-08T12:15:31.668Z,79.35
2018-09-08T12:18:35.906Z,78.27
2018-09-08T12:21:40.316Z,78.55
2018-09-08T12:24:44.603Z,80.13
2018-09-08T12:27:48.976Z,82.11
2018-09-08T12:30:53.427Z,81.73
2018-09-08T12:33:57.842Z,80.73
2018-09-08T12:37:02.218Z,82.10
2018-09-08T12:40:06.764Z,82.09
2018-09-08T12:43:11.096Z,84.34
2018-09-08T12:46:15.478Z,86.61
2018-09-08T12:49:19.797Z,87.59
2018-09-08T12:52:24.114Z,88.61
2018-09-08T12:55:28.441Z,89.10
2018-09-08T12:58:32.767Z,90.09
2018-09-08T13:01:37.057Z,90.94
2018-09-08T13:04:41.410Z,91.04
2018-09-08T13:07:46.066Z,89.64
2018-09-08T13:10:50.874Z,88.80
2018-09-08T13:13:55.246Z,88.13
2018-09-08T13:16:59.591Z,88.91
2018-09-08T13:20:03.856Z,87.95
2018-09-08T13:23:08.253Z,86.79
2018-09-08T13:26:12.522Z,85.81
2018-09-08T13:29:16.831Z,80.61
2018-09-08T13:32:21.095Z,78.01
2018-09-08T13:35:25.384Z,76.91
2018-09-08T13:38:29.697Z,77.03
2018-09-08T13:41:34.013Z,76.50
2018-09-08T13:44:38.434Z,76.01
2018-09-08T13:47:42.721Z,77.22
2018-09-08T13:50:47.075Z,84.45
2018-09-08T13:53:51.387Z,89.87
2018-09-08T13:56:55.714Z,91.78
2018-09-08T14:00:00.060Z,92.15
2018-09-08T14:03:04.378Z,91.57
2018-09-08T14:06:08.716Z,90.24
2018-09-08T14:09:13.008Z,90.88
2018-09-08T14:12:17.373Z,89.73
2018-09-08T14:15:21.744Z,89.04
2018-09-08T14:18:26.059Z,88.52
2018-09-08T14:21:30.361Z,88.44
2018-09-08T14:24:34.684Z,86.95
2018-09-08T14:27:39.101Z,86.46
2018-09-08T14:30:43.465Z,84.02
2018-09-08T14:33:47.878Z,83.95
2018-09-08T14:36:52.199Z,84.48
2018-09-08T14:39:56.584Z,89.37
2018-09-08T14:43:01.265Z,91.44
2018-09-08T14:46:05.596Z,94.97
2018-09-08T14:49:09.973Z,96.25
2018-09-08T14:52:15.022Z,96.60
2018-09-08T14:55:19.354Z,95.98
2018-09-08T14:58:23.770Z,95.35
2018-09-08T15:01:28.306Z,96.83
2018-09-08T15:04:32.610Z,97.28
2018-09-08T15:07:36.937Z,98.02
2018-09-08T15:10:41.210Z,96.76
2018-09-08T15:13:45.541Z,96.41
2018-09-08T15:16:49.896Z,96.73
2018-09-08T15:19:54.433Z,95.12
2018-09-08T15:22:58.841Z,93.34
2018-09-08T15:26:03.263Z,92.98
2018-09-08T15:29:07.572Z,92.96
2018-09-08T15:32:12.009Z,92.78
2018-09-08T15:35:17.082Z,92.32
2018-09-08T15:38:21.492Z,91.86
2018-09-08T15:41:25.855Z,90.29
2018-09-08T15:44:30.294Z,87.43
2018-09-08T15:47:34.649Z,84.81
2018-09-08T15:50:39.043Z,84.80
2018-09-08T15:53:43.424Z,82.86
2018-09-08T15:56:47.789Z,82.94
2018-09-08T15:59:52.219Z,79.64
2018-09-08T16:02:56.613Z,78.83
2018-09-08T16:06:01.083Z,78.26
2018-09-08T16:09:06.765Z,78.00
2018-09-08T16:12:11.095Z,78.73
2018-09-08T16:15:15.557Z,80.74
2018-09-08T16:18:19.913Z,78.53
2018-09-08T16:21:24.321Z,80.31
2018-09-08T16:24:28.718Z,81.53
2018-09-08T16:27:33.159Z,81.58
2018-09-08T16:30:37.452Z,80.80
2018-09-08T16:33:41.782Z,80.45
2018-09-08T16:36:46.072Z,80.92
2018-09-08T16:39:50.446Z,81.63
2018-09-08T16:42:54.791Z,82.65
2018-09-08T16:45:59.100Z,81.50
2018-09-08T16:49:03.586Z,81.94
2018-09-08T16:52:07.979Z,83.07
2018-09-08T16:55:12.248Z,81.94
2018-09-08T16:58:16.737Z,80.57
2018-09-08T17:01:21.142Z,81.89
2018-09-08T17:04:25.464Z,81.83
2018-09-08T17:07:30.091Z,82.90
2018-09-08T17:10:34.425Z,82.40
2018-09-08T17:13:38.676Z,82.88
2018-09-08T17:16:42.996Z,83.41
2018-09-08T17:19:47.353Z,84.00
2018-09-08T17:22:51.729Z,84.33
2018-09-08T17:25:55.996Z,84.20
2018-09-08T17:29:00.457Z,84.62
2018-09-08T17:32:04.835Z,85.88
2018-09-08T17:35:09.164Z,85.76
2018-09-08T17:38:13.581Z,85.78
2018-09-08T17:41:17.932Z,86.64
2018-09-08T17:44:22.286Z,86.31
2018-09-08T17:47:26.680Z,87.09
2018-09-08T17:50:31.053Z,87.50
2018-09-08T17:53:35.383Z,86.98
2018-09-08T17:56:39.702Z,86.86
2018-09-08T17:59:44.027Z,86.95
2018-09-08T18:02:48.314Z,87.35
2018-09-08T18:05:52.676Z,87.09
2018-09-08T18:08:56.965Z,86.91
2018-09-08T18:12:01.279Z,87.35
2018-09-08T18:15:06.946Z,87.90
2018-09-08T18:18:11.301Z,88.36
2018-09-08T18:21:15.687Z,88.86
2018-09-08T18:24:20.043Z,88.47
2018-09-08T18:27:24.436Z,88.98
2018-09-08T18:30:29.066Z,89.77
2018-09-08T18:33:33.400Z,89.85
2018-09-08T18:36:37.792Z,90.52
2018-09-08T18:39:42.124Z,91.45
2018-09-08T18:42:46.544Z,91.99
2018-09-08T18:45:51.156Z,93.04
2018-09-08T18:48:55.465Z,93.84
2018-09-08T18:52:00.382Z,94.88
2018-09-08T18:55:05.305Z,95.96
2018-09-08T18:58:10.451Z,96.50
2018-09-08T19:01:14.764Z,96.76
2018-09-08T19:04:19.180Z,96.82
2018-09-08T19:07:23.551Z,96.79
2018-09-08T19:10:30.989Z,97.50
2018-09-08T19:13:35.313Z,97.84
2018-09-08T19:16:39.781Z,99.34
2018-09-08T19:19:44.190Z,99.37
2018-09-08T19:22:49.099Z,99.99
2018-09-08T19:25:53.503Z,100.00
2018-09-08T19:29:03.030Z,100.00
2018-09-08T19:32:07.414Z,100.00
2018-09-08T19:35:17.157Z,100.00
2018-09-08T19:38:21.498Z,100.00
2018-09-08T19:41:25.958Z,100.00
2018-09-08T19:44:30.312Z,100.00
2018-09-08T19:47:40.070Z,100.00
2018-09-08T19:50:44.415Z,100.00
2018-09-08T19:53:54.070Z,100.00
2018-09-08T19:57:03.617Z,100.00
2018-09-08T20:00:08.770Z,100.00
2018-09-08T20:03:13.124Z,100.00
2018-09-08T20:06:17.457Z,100.00
2018-09-08T20:09:21.894Z,100.00
2018-09-08T20:12:26.319Z,100.00
2018-09-08T20:15:30.759Z,100.00
2018-09-08T20:18:35.113Z,100.00
2018-09-08T20:21:39.426Z,100.00
2018-09-08T20:24:43.800Z,100.00
2018-09-08T20:27:48.144Z,100.00
2018-09-08T20:30:52.480Z,100.00
2018-09-08T20:33:56.964Z,100.00
2018-09-08T20:37:01.874Z,100.00
2018-09-08T20:40:06.389Z,100.00
2018-09-08T20:43:10.864Z,100.00
2018-09-08T20:46:15.194Z,100.00
2018-09-08T20:49:19.539Z,100.00
2018-09-08T20:52:23.876Z,100.00
2018-09-08T20:55:28.424Z,100.00
2018-09-08T20:58:33.050Z,100.00
2018-09-08T21:01:37.417Z,100.00
2018-09-08T21:04:42.057Z,100.00
2018-09-08T21:07:46.509Z,100.00
2018-09-08T21:10:50.820Z,100.00
2018-09-08T21:13:55.439Z,100.00
2018-09-08T21:16:59.850Z,100.00
2018-09-08T21:20:04.483Z,100.00
2018-09-08T21:23:08.895Z,100.00
2018-09-08T21:26:13.350Z,100.00
2018-09-08T21:29:18.332Z,100.00
2018-09-08T21:32:23.378Z,100.00
2018-09-08T21:35:28.197Z,100.00
2018-09-08T21:38:33.458Z,100.00
2018-09-08T21:41:38.495Z,100.00
2018-09-08T21:44:44.059Z,100.00
2018-09-08T21:47:49.109Z,100.00
2018-09-08T21:50:53.769Z,100.00
2018-09-08T21:53:59.487Z,100.00
2018-09-08T21:57:05.260Z,100.00
2018-09-08T22:00:09.584Z,100.00
2018-09-08T22:03:13.900Z,100.00
2018-09-08T22:06:18.194Z,100.00
2018-09-08T22:09:22.539Z,100.00
2018-09-08T22:12:26.875Z,100.00
2018-09-08T22:15:31.135Z,100.00
2018-09-08T22:18:35.476Z,100.00
2018-09-08T22:21:39.798Z,100.00
2018-09-08T22:24:44.118Z,100.00
2018-09-08T22:27:48.453Z,100.00
2018-09-08T22:30:52.726Z,100.00
2018-09-08T22:33:57.051Z,100.00
2018-09-08T22:37:01.348Z,100.00
2018-09-08T22:40:05.665Z,100.00
2018-09-08T22:43:09.942Z,100.00
2018-09-08T22:46:14.281Z,100.00
2018-09-08T22:49:18.691Z,100.00
2018-09-08T22:52:23.885Z,100.00
2018-09-08T22:55:28.185Z,100.00
2018-09-08T22:58:32.449Z,100.00
2018-09-08T23:01:36.747Z,100.00
2018-09-08T23:04:41.035Z,100.00
2018-09-08T23:07:45.321Z,100.00
2018-09-08T23:10:49.754Z,100.00
2018-09-08T23:13:54.008Z,100.00
2018-09-08T23:16:58.284Z,100.00
2018-09-08T23:20:02.574Z,100.00
2018-09-08T23:23:06.921Z,100.00
2018-09-08T23:26:11.159Z,100.00
2018-09-08T23:29:15.471Z,100.00
2018-09-08T23:32:20.673Z,100.00
2018-09-08T23:35:24.969Z,100.00
2018-09-08T23:38:29.228Z,100.00
2018-09-08T23:41:33.497Z,100.00
2018-09-08T23:44:37.761Z,100.00
2018-09-08T23:47:42.069Z,100.00
2018-09-08T23:50:46.360Z,100.00
2018-09-08T23:53:50.728Z,100.00
2018-09-08T23:56:54.997Z,100.00
2018-09-08T23:59:59.280Z,100.00
